Time;durP1;ratioP1;P1;durP2;ratioP2;P2;SDS_P1;SDS_P2;PMS_P1;PMS_P2;Temp;Humidity;BMP_temperature;BMP_pressure;BME280_temperature;BME280_humidity;BME280_pressure;Samples;Min_cycle;Max_cycle;Signal;HPM_P1;HPM_P2
2023/01/27 00:00:19;;;;;;;11.98;0.90;;;5.10;99.90;;;;;;5017266;28;20038;-92
2023/01/27 00:02:45;;;;;;;9.60;1.13;;;5.00;99.90;;;;;;5023367;28;20022;-91
2023/01/27 00:05:12;;;;;;;9.18;0.95;;;5.00;99.90;;;;;;5018132;28;20045;-92
2023/01/27 00:07:44;;;;;;;13.57;2.03;;;5.00;99.90;;;;;;5023066;28;20051;-91
2023/01/27 00:10:13;;;;;;;15.40;2.08;;;5.00;99.90;;;;;;5017179;28;20026;-91
2023/01/27 00:15:23;;;;;;;8.18;0.98;;;4.90;99.90;;;;;;5014328;28;20056;-91
2023/01/27 00:17:48;;;;;;;8.57;1.70;;;4.90;99.90;;;;;;5004323;28;20483;-90
2023/01/27 00:24:34;;;;;;;11.73;2.70;;;4.90;99.90;;;;;;5015448;28;20077;-91
2023/01/27 00:25:49;;;;;;;15.52;2.25;;;4.90;99.90;;;;;;5002428;28;20033;-91
2023/01/27 00:28:21;;;;;;;10.27;2.40;;;4.80;99.90;;;;;;5004754;28;20026;-91
2023/01/27 00:30:49;;;;;;;13.10;2.20;;;4.80;99.90;;;;;;5021977;28;20056;-91
2023/01/27 00:33:26;;;;;;;9.93;2.00;;;4.80;99.90;;;;;;5017778;28;20026;-91
2023/01/27 00:36:00;;;;;;;12.32;2.25;;;4.80;99.90;;;;;;5015737;28;20050;-92
2023/01/27 00:38:27;;;;;;;10.23;2.00;;;4.80;99.90;;;;;;5014938;28;20029;-92
2023/01/27 00:43:37;;;;;;;10.70;2.08;;;4.70;99.90;;;;;;5016572;28;20041;-91
2023/01/27 00:46:02;;;;;;;12.18;2.50;;;4.70;99.90;;;;;;5012000;28;20033;-93
2023/01/27 00:48:28;;;;;;;13.93;3.03;;;4.70;99.90;;;;;;5013728;28;20026;-90
2023/01/27 00:50:54;;;;;;;17.65;2.72;;;4.60;99.90;;;;;;5013085;28;20107;-90
2023/01/27 00:53:19;;;;;;;7.78;2.15;;;4.60;99.90;;;;;;5011919;28;20044;-91
2023/01/27 00:55:46;;;;;;;13.75;2.42;;;4.60;99.90;;;;;;5018438;28;20390;-92
2023/01/27 00:58:12;;;;;;;11.25;2.70;;;4.60;99.90;;;;;;5014832;28;20061;-92
2023/01/27 01:00:37;;;;;;;13.18;3.00;;;4.60;99.90;;;;;;5012837;28;20073;-92
2023/01/27 01:03:03;;;;;;;10.02;2.00;;;4.60;99.90;;;;;;5014093;28;20038;-91
2023/01/27 01:05:28;;;;;;;8.38;2.47;;;4.60;99.90;;;;;;5024180;28;20022;-91
2023/01/27 01:07:54;;;;;;;9.75;2.13;;;4.60;99.90;;;;;;5011496;28;20022;-92
2023/01/27 01:10:19;;;;;;;11.55;2.35;;;4.60;99.90;;;;;;5012246;28;20141;-92
2023/01/27 01:12:45;;;;;;;11.05;2.67;;;4.60;99.90;;;;;;5027433;28;20034;-91
2023/01/27 01:15:10;;;;;;;7.18;1.92;;;4.50;99.90;;;;;;5004600;28;21598;-91
2023/01/27 01:17:36;;;;;;;5.80;1.88;;;4.50;99.90;;;;;;5012099;28;20077;-91
2023/01/27 01:20:02;;;;;;;5.80;1.75;;;4.50;99.90;;;;;;5012397;28;20030;-91
2023/01/27 01:22:27;;;;;;;18.77;3.45;;;4.50;99.90;;;;;;5014563;28;20030;-90
2023/01/27 01:24:53;;;;;;;10.63;2.30;;;4.50;99.90;;;;;;5012622;28;20041;-91
2023/01/27 01:27:18;;;;;;;12.80;2.75;;;4.50;99.90;;;;;;5012227;28;20037;-91
2023/01/27 01:29:44;;;;;;;9.02;2.20;;;4.50;99.90;;;;;;5019244;28;20374;-91
2023/01/27 01:32:10;;;;;;;12.10;2.38;;;4.60;99.90;;;;;;5015357;28;20038;-92
2023/01/27 01:34:36;;;;;;;10.43;2.17;;;4.50;99.90;;;;;;5007238;28;20022;-92
2023/01/27 01:37:02;;;;;;;16.42;3.15;;;4.50;99.90;;;;;;5021751;28;20054;-90
2023/01/27 01:39:28;;;;;;;12.35;2.63;;;4.50;99.90;;;;;;5008368;28;20122;-91
2023/01/27 01:41:53;;;;;;;13.25;3.17;;;4.50;99.90;;;;;;5011322;28;21763;-91
2023/01/27 01:44:28;;;;;;;9.65;2.88;;;4.50;99.90;;;;;;5012766;28;20037;-91
2023/01/27 01:46:53;;;;;;;10.68;2.72;;;4.50;99.90;;;;;;5012714;28;20029;-90
2023/01/27 01:49:25;;;;;;;9.95;3.58;;;4.50;99.90;;;;;;5012728;28;20056;-92
2023/01/27 01:52:00;;;;;;;14.03;3.97;;;4.50;99.90;;;;;;5003930;28;20033;-92
2023/01/27 01:54:33;;;;;;;12.43;3.72;;;4.40;99.90;;;;;;5019408;28;20284;-91
2023/01/27 01:57:04;;;;;;;13.15;4.03;;;4.40;99.90;;;;;;5002380;28;20038;-91
2023/01/27 01:59:42;;;;;;;10.73;3.63;;;4.40;99.90;;;;;;5010729;28;20449;-91
2023/01/27 02:02:11;;;;;;;14.95;4.43;;;4.40;99.90;;;;;;5000478;28;20050;-91
2023/01/27 02:04:49;;;;;;;14.50;4.40;;;4.30;99.90;;;;;;5012063;28;20021;-91
2023/01/27 02:07:32;;;;;;;12.65;4.88;;;4.30;99.90;;;;;;5010510;28;20079;-91
2023/01/27 02:09:58;;;;;;;12.15;4.68;;;4.30;99.90;;;;;;5013113;28;20069;-91
2023/01/27 02:12:24;;;;;;;10.38;3.80;;;4.30;99.90;;;;;;5013460;28;20037;-91
2023/01/27 02:14:49;;;;;;;14.15;4.20;;;4.30;99.90;;;;;;5012053;28;20030;-91
2023/01/27 02:17:16;;;;;;;12.32;5.13;;;4.30;99.90;;;;;;5012749;28;20037;-91
2023/01/27 02:20:05;;;;;;;15.45;4.70;;;4.30;99.90;;;;;;5010688;28;20026;-92
2023/01/27 02:22:48;;;;;;;13.45;5.28;;;4.30;99.90;;;;;;5012960;28;20029;-91
2023/01/27 02:25:34;;;;;;;17.08;6.45;;;4.30;99.90;;;;;;5013634;28;20393;-91
2023/01/27 02:28:05;;;;;;;11.90;4.40;;;4.30;99.90;;;;;;5012391;28;20109;-92
2023/01/27 02:30:31;;;;;;;15.63;5.38;;;4.30;99.90;;;;;;5018906;28;20477;-92
2023/01/27 02:32:56;;;;;;;8.95;4.53;;;4.30;99.90;;;;;;5006189;28;20036;-91
2023/01/27 02:35:32;;;;;;;15.38;5.40;;;4.30;99.90;;;;;;5010126;28;20053;-91
2023/01/27 02:37:59;;;;;;;16.98;5.75;;;4.30;99.90;;;;;;5020139;28;20033;-92
2023/01/27 02:40:26;;;;;;;20.85;6.15;;;4.30;99.90;;;;;;5021070;28;20031;-91
2023/01/27 02:42:58;;;;;;;17.77;5.30;;;4.30;99.90;;;;;;5012788;28;20022;-90
2023/01/27 02:45:24;;;;;;;17.50;6.10;;;4.40;99.90;;;;;;5017456;28;20037;-91
2023/01/27 02:47:49;;;;;;;17.25;6.65;;;4.40;99.90;;;;;;5008511;28;20045;-89
2023/01/27 02:50:15;;;;;;;12.45;5.88;;;4.40;99.90;;;;;;5010959;28;20018;-90
2023/01/27 02:52:41;;;;;;;20.73;6.75;;;4.30;99.90;;;;;;5013746;28;20116;-90
2023/01/27 02:55:07;;;;;;;15.88;6.05;;;4.40;99.90;;;;;;5014301;28;20535;-90
2023/01/27 02:57:33;;;;;;;16.65;6.47;;;4.30;99.90;;;;;;5020210;28;20021;-90
2023/01/27 02:59:58;;;;;;;13.82;6.30;;;4.30;99.90;;;;;;5015546;28;20032;-88
2023/01/27 03:02:29;;;;;;;17.50;6.85;;;4.30;99.90;;;;;;5013811;28;20129;-90
2023/01/27 03:04:57;;;;;;;17.05;6.00;;;4.30;99.90;;;;;;5029949;28;20029;-90
2023/01/27 03:07:23;;;;;;;18.75;7.47;;;4.30;99.90;;;;;;5010894;28;20112;-90
2023/01/27 03:09:49;;;;;;;16.27;7.25;;;4.30;99.90;;;;;;5016702;28;20481;-91
2023/01/27 03:12:20;;;;;;;25.48;9.02;;;4.30;99.90;;;;;;5015964;28;20026;-90
2023/01/27 03:20:21;;;;;;;15.25;8.27;;;4.30;99.90;;;;;;5032898;28;20052;-90
2023/01/27 03:22:48;;;;;;;19.65;8.35;;;4.30;99.90;;;;;;5017791;28;20388;-90
2023/01/27 03:25:14;;;;;;;24.15;9.80;;;4.30;99.90;;;;;;5018009;28;20100;-91
2023/01/27 03:27:41;;;;;;;22.55;10.35;;;4.30;99.90;;;;;;5018334;28;20026;-88
2023/01/27 03:30:08;;;;;;;25.65;9.48;;;4.30;99.90;;;;;;5029332;28;20037;-90
2023/01/27 03:32:34;;;;;;;26.45;10.80;;;4.30;99.90;;;;;;5020715;28;20045;-90
2023/01/27 03:35:00;;;;;;;28.20;11.10;;;4.30;99.90;;;;;;5039462;28;20050;-90
2023/01/27 03:48:33;;;;;;;29.77;10.85;;;4.30;99.90;;;;;;5031335;28;20083;-91
2023/01/27 03:51:01;;;;;;;23.85;13.23;;;4.30;99.90;;;;;;5013095;28;20104;-90
2023/01/27 03:53:27;;;;;;;29.30;12.07;;;4.30;99.90;;;;;;5011739;28;20010;-90
2023/01/27 03:55:53;;;;;;;24.20;12.93;;;4.20;99.90;;;;;;5018177;28;20048;-89
2023/01/27 03:58:27;;;;;;;27.15;13.02;;;4.20;99.90;;;;;;5024784;28;20029;-90
2023/01/27 04:00:59;;;;;;;27.45;12.73;;;4.20;99.90;;;;;;5007980;28;20044;-91
2023/01/27 04:09:02;;;;;;;23.77;12.80;;;4.20;99.90;;;;;;5050791;28;20123;-90
2023/01/27 04:14:14;;;;;;;18.27;11.02;;;4.20;99.90;;;;;;5032199;28;20039;-90
2023/01/27 04:16:39;;;;;;;20.02;11.13;;;4.20;99.90;;;;;;5015745;28;20029;-91
2023/01/27 04:19:07;;;;;;;20.95;10.55;;;4.20;99.90;;;;;;5008123;28;20763;-89
2023/01/27 04:21:33;;;;;;;20.80;12.07;;;4.20;99.90;;;;;;5015358;28;20021;-90
2023/01/27 04:23:59;;;;;;;21.90;10.63;;;4.20;99.90;;;;;;5018272;28;20071;-90
2023/01/27 04:26:25;;;;;;;20.13;10.40;;;4.30;99.90;;;;;;5023179;28;20116;-90
2023/01/27 04:28:51;;;;;;;19.73;10.82;;;4.30;99.90;;;;;;5023103;28;20029;-92
2023/01/27 04:31:17;;;;;;;15.73;10.27;;;4.30;99.90;;;;;;5022013;28;20098;-90
2023/01/27 04:33:43;;;;;;;20.77;9.70;;;4.30;99.90;;;;;;5012930;28;20482;-93
2023/01/27 04:36:10;;;;;;;16.85;9.68;;;4.30;99.90;;;;;;5010947;28;20136;-91
2023/01/27 04:38:35;;;;;;;18.45;9.63;;;4.30;99.90;;;;;;5016104;28;20401;-91
2023/01/27 04:41:01;;;;;;;18.90;9.95;;;4.30;99.90;;;;;;5020314;28;20040;-91
2023/01/27 04:43:26;;;;;;;14.60;8.63;;;4.30;99.90;;;;;;5014714;28;20033;-91
2023/01/27 04:45:52;;;;;;;13.65;8.30;;;4.30;99.90;;;;;;5014614;28;20017;-90
2023/01/27 04:48:18;;;;;;;15.02;8.98;;;4.40;99.90;;;;;;5022447;28;20055;-90
2023/01/27 04:50:43;;;;;;;13.02;7.78;;;4.40;99.90;;;;;;5014563;28;20485;-90
2023/01/27 04:53:09;;;;;;;12.60;8.38;;;4.40;99.90;;;;;;5017914;28;20033;-91
2023/01/27 04:55:34;;;;;;;11.88;7.07;;;4.40;99.90;;;;;;5016810;28;20048;-90
2023/01/27 04:58:00;;;;;;;11.93;8.00;;;4.40;99.90;;;;;;5017813;28;20033;-90
2023/01/27 05:00:25;;;;;;;11.88;6.72;;;4.50;99.90;;;;;;5016428;28;20041;-90
2023/01/27 05:02:51;;;;;;;12.95;7.55;;;4.50;99.90;;;;;;5017732;28;20029;-90
2023/01/27 05:05:16;;;;;;;12.80;7.10;;;4.50;99.90;;;;;;5014032;28;20064;-89
2023/01/27 05:07:42;;;;;;;19.40;8.82;;;4.50;99.90;;;;;;5017543;28;20033;-90
2023/01/27 05:10:08;;;;;;;13.02;7.45;;;4.50;99.90;;;;;;5017778;28;20387;-90
2023/01/27 05:12:34;;;;;;;13.77;7.45;;;4.50;99.90;;;;;;5013747;28;20508;-88
2023/01/27 05:14:59;;;;;;;13.10;7.38;;;4.50;99.90;;;;;;5019150;28;20030;-90
2023/01/27 05:17:26;;;;;;;13.70;7.20;;;4.50;99.90;;;;;;5038293;28;20043;-91
2023/01/27 05:19:52;;;;;;;13.55;7.57;;;4.50;99.90;;;;;;5023451;28;20072;-92
2023/01/27 05:22:17;;;;;;;12.05;7.63;;;4.50;99.90;;;;;;5019541;28;20488;-91
2023/01/27 05:24:43;;;;;;;15.35;7.97;;;4.50;99.90;;;;;;5017050;28;20022;-91
2023/01/27 05:27:08;;;;;;;12.43;7.38;;;4.50;99.90;;;;;;5008189;28;20030;-91
2023/01/27 05:29:34;;;;;;;15.48;8.30;;;4.50;99.90;;;;;;5018096;28;20412;-92
2023/01/27 05:31:59;;;;;;;14.77;7.18;;;4.50;99.90;;;;;;5013410;28;20029;-91
2023/01/27 05:34:25;;;;;;;14.35;7.22;;;4.50;99.90;;;;;;5013627;28;20045;-90
2023/01/27 05:36:50;;;;;;;10.30;6.88;;;4.50;99.90;;;;;;5014681;28;20073;-91
2023/01/27 05:39:16;;;;;;;10.90;6.78;;;4.50;99.90;;;;;;5011254;28;20473;-91
2023/01/27 05:41:42;;;;;;;11.85;7.05;;;4.50;99.90;;;;;;5010193;28;20088;-90
2023/01/27 05:44:10;;;;;;;12.18;5.93;;;4.50;99.90;;;;;;5017685;28;20025;-92
2023/01/27 05:46:39;;;;;;;13.25;6.88;;;4.50;99.90;;;;;;5018282;28;20029;-92
2023/01/27 05:49:04;;;;;;;11.07;5.00;;;4.50;99.90;;;;;;5012085;28;20029;-91
2023/01/27 05:51:34;;;;;;;12.45;6.22;;;4.60;99.90;;;;;;5016130;28;20113;-92
2023/01/27 05:54:00;;;;;;;10.00;5.00;;;4.50;99.90;;;;;;5032009;28;20029;-92
2023/01/27 05:56:25;;;;;;;6.93;4.68;;;4.60;99.90;;;;;;5018317;28;20037;-92
2023/01/27 05:58:55;;;;;;;9.70;5.60;;;4.60;99.90;;;;;;5018568;28;20171;-92
2023/01/27 06:01:26;;;;;;;8.88;5.05;;;4.60;99.90;;;;;;5027877;28;20026;-92
2023/01/27 06:03:52;;;;;;;6.80;4.60;;;4.60;99.90;;;;;;5033298;28;20120;-91
2023/01/27 06:06:21;;;;;;;9.73;4.97;;;4.60;99.90;;;;;;5005225;28;20083;-91
2023/01/27 06:08:47;;;;;;;8.40;5.22;;;4.60;99.90;;;;;;5024125;28;20021;-90
2023/01/27 06:11:14;;;;;;;7.63;4.50;;;4.60;99.90;;;;;;5017616;28;20469;-91
2023/01/27 06:13:40;;;;;;;8.43;4.50;;;4.60;99.90;;;;;;5016233;28;20517;-90
2023/01/27 06:16:09;;;;;;;6.78;3.42;;;4.60;99.90;;;;;;5017732;28;20037;-92
2023/01/27 06:18:35;;;;;;;7.82;4.65;;;4.70;99.90;;;;;;5017639;28;20026;-91
2023/01/27 06:21:02;;;;;;;9.13;4.60;;;4.70;99.90;;;;;;5016626;28;20485;-91
2023/01/27 06:23:28;;;;;;;6.38;3.72;;;4.70;99.90;;;;;;5025897;28;20477;-91
2023/01/27 06:25:55;;;;;;;7.40;4.07;;;4.70;99.90;;;;;;5028078;28;20042;-92
2023/01/27 06:28:21;;;;;;;6.88;4.07;;;4.70;99.90;;;;;;5019073;28;20509;-92
2023/01/27 06:30:46;;;;;;;6.82;3.90;;;4.70;99.90;;;;;;5016499;28;20061;-88
2023/01/27 06:33:12;;;;;;;7.55;4.50;;;4.70;99.90;;;;;;5020504;28;20052;-91
2023/01/27 06:35:39;;;;;;;7.25;4.20;;;4.70;99.90;;;;;;5035422;28;20179;-90
2023/01/27 06:38:07;;;;;;;7.43;4.40;;;4.70;99.90;;;;;;5021377;28;20021;-92
2023/01/27 06:40:33;;;;;;;6.18;3.45;;;4.70;99.90;;;;;;5016981;28;20029;-91
2023/01/27 06:43:00;;;;;;;7.13;3.75;;;4.70;99.90;;;;;;5024301;28;20041;-91
2023/01/27 06:45:26;;;;;;;6.85;4.10;;;4.70;99.90;;;;;;5050889;28;20531;-91
2023/01/27 06:48:00;;;;;;;8.00;4.47;;;4.70;99.90;;;;;;5032430;28;20030;-91
2023/01/27 06:50:27;;;;;;;7.95;4.63;;;4.70;99.90;;;;;;5043414;28;20025;-90
2023/01/27 06:53:02;;;;;;;7.65;3.78;;;4.70;99.90;;;;;;5030306;28;20026;-91
2023/01/27 06:55:28;;;;;;;6.28;4.15;;;4.70;99.90;;;;;;5021850;28;20089;-90
2023/01/27 06:57:54;;;;;;;5.38;3.63;;;4.70;99.90;;;;;;5028185;28;20351;-90
2023/01/27 07:00:19;;;;;;;6.13;3.95;;;4.60;99.90;;;;;;5022887;28;20029;-90
2023/01/27 07:02:45;;;;;;;6.90;4.15;;;4.60;99.90;;;;;;5047949;28;20632;-91
2023/01/27 07:05:12;;;;;;;5.38;3.15;;;4.60;99.90;;;;;;5020282;28;20017;-92
2023/01/27 07:07:38;;;;;;;6.82;3.67;;;4.60;99.90;;;;;;5032390;28;20048;-91
2023/01/27 07:10:05;;;;;;;5.82;3.67;;;4.60;99.90;;;;;;5025017;28;20025;-91
2023/01/27 07:12:30;;;;;;;7.43;3.83;;;4.60;99.90;;;;;;5025547;28;20531;-90
2023/01/27 07:14:56;;;;;;;7.68;3.75;;;4.60;99.90;;;;;;5037916;28;20022;-90
2023/01/27 07:17:21;;;;;;;5.90;3.53;;;4.60;99.90;;;;;;5015555;28;20045;-90
2023/01/27 07:19:47;;;;;;;6.30;3.38;;;4.60;99.90;;;;;;5024185;28;20026;-90
2023/01/27 07:22:12;;;;;;;5.63;3.67;;;4.60;99.90;;;;;;5017606;28;20037;-87
2023/01/27 07:24:38;;;;;;;6.25;4.10;;;4.50;99.90;;;;;;5015020;28;20068;-90
2023/01/27 07:27:03;;;;;;;7.63;3.70;;;4.50;99.90;;;;;;5017884;28;20021;-90
2023/01/27 07:29:29;;;;;;;8.38;4.25;;;4.50;99.90;;;;;;5032959;28;20036;-90
2023/01/27 07:31:54;;;;;;;6.20;3.72;;;4.50;99.90;;;;;;5015110;28;20022;-90
2023/01/27 07:34:20;;;;;;;7.80;4.65;;;4.50;99.90;;;;;;5015184;28;20025;-90
2023/01/27 07:36:45;;;;;;;6.35;3.28;;;4.50;99.90;;;;;;5033439;28;20106;-89
2023/01/27 07:39:11;;;;;;;6.20;3.35;;;4.50;99.90;;;;;;5014937;28;20049;-88
2023/01/27 07:41:36;;;;;;;6.00;3.38;;;4.50;99.90;;;;;;5019191;28;20029;-90
2023/01/27 07:44:02;;;;;;;5.93;3.65;;;4.40;99.90;;;;;;5015502;28;20391;-89
2023/01/27 07:46:28;;;;;;;4.95;3.35;;;4.40;99.90;;;;;;5015868;28;20036;-89
2023/01/27 07:48:53;;;;;;;6.95;3.67;;;4.40;99.90;;;;;;5031906;28;20018;-89
2023/01/27 07:51:19;;;;;;;5.40;3.80;;;4.50;99.90;;;;;;5014624;28;20052;-89
2023/01/27 07:53:44;;;;;;;6.40;3.47;;;4.50;99.90;;;;;;5029581;28;20025;-90
2023/01/27 07:56:10;;;;;;;4.10;3.00;;;4.50;99.90;;;;;;5012603;28;20447;-90
2023/01/27 07:58:40;;;;;;;5.22;3.70;;;4.50;99.90;;;;;;5016110;28;20061;-89
2023/01/27 08:01:08;;;;;;;3.95;2.55;;;4.50;99.90;;;;;;5016634;28;20076;-89
2023/01/27 08:03:35;;;;;;;6.82;3.78;;;4.50;99.90;;;;;;5020447;28;20024;-89
2023/01/27 08:06:08;;;;;;;10.95;2.90;;;4.50;99.90;;;;;;5021382;28;20048;-89
2023/01/27 08:08:35;;;;;;;6.20;3.30;;;4.50;99.90;;;;;;5018990;28;20499;-89
2023/01/27 08:11:01;;;;;;;4.22;3.13;;;4.50;99.90;;;;;;5018959;28;20026;-89
2023/01/27 08:13:27;;;;;;;8.32;2.72;;;4.50;99.90;;;;;;5018661;28;20017;-88
2023/01/27 08:15:57;;;;;;;7.53;3.17;;;4.50;99.90;;;;;;5035345;28;20045;-89
2023/01/27 08:18:23;;;;;;;5.22;3.30;;;4.50;99.90;;;;;;5019180;28;20083;-89
2023/01/27 08:20:51;;;;;;;4.07;2.95;;;4.50;99.90;;;;;;5018200;28;20120;-89
2023/01/27 08:23:17;;;;;;;5.65;2.38;;;4.50;99.90;;;;;;5018955;28;20418;-90
2023/01/27 08:25:48;;;;;;;4.40;2.42;;;4.50;99.90;;;;;;5019241;28;20037;-90
2023/01/27 08:28:14;;;;;;;4.07;2.25;;;4.50;99.90;;;;;;5018362;28;20381;-90
2023/01/27 08:30:39;;;;;;;4.50;2.25;;;4.50;99.90;;;;;;5034224;28;20033;-90
2023/01/27 08:33:05;;;;;;;5.30;2.60;;;4.50;99.90;;;;;;5021957;28;20032;-89
2023/01/27 08:35:30;;;;;;;4.10;2.90;;;4.50;99.90;;;;;;5020574;28;20033;-90
2023/01/27 08:37:56;;;;;;;5.97;3.05;;;4.50;99.90;;;;;;5020032;28;20026;-90
2023/01/27 08:40:21;;;;;;;3.85;2.65;;;4.50;99.90;;;;;;5036479;28;20026;-91
2023/01/27 08:42:49;;;;;;;3.30;2.40;;;4.50;99.90;;;;;;5020827;28;20052;-90
2023/01/27 08:45:15;;;;;;;3.67;2.80;;;4.50;99.90;;;;;;5030241;28;20025;-90
2023/01/27 08:47:40;;;;;;;3.40;2.38;;;4.50;99.90;;;;;;5021071;28;20607;-91
2023/01/27 08:50:07;;;;;;;4.57;3.17;;;4.50;99.90;;;;;;5021900;28;20075;-90
2023/01/27 08:52:33;;;;;;;7.30;1.98;;;4.50;99.90;;;;;;5015327;28;20033;-90
2023/01/27 08:54:58;;;;;;;2.85;2.22;;;4.50;99.90;;;;;;5038911;28;20032;-89
2023/01/27 08:57:24;;;;;;;4.60;2.80;;;4.40;99.90;;;;;;5038740;28;20025;-90
2023/01/27 08:59:49;;;;;;;3.70;2.30;;;4.50;99.90;;;;;;5037477;28;20022;-90
2023/01/27 09:02:15;;;;;;;3.78;2.35;;;4.50;99.90;;;;;;5036731;28;20026;-90
2023/01/27 09:04:43;;;;;;;4.95;2.83;;;4.40;99.90;;;;;;5037968;28;20029;-90
2023/01/27 09:07:09;;;;;;;4.18;2.38;;;4.50;99.90;;;;;;5021044;28;20297;-90
2023/01/27 09:09:34;;;;;;;2.38;1.52;;;4.50;99.90;;;;;;5020733;28;20014;-91
2023/01/27 09:12:00;;;;;;;3.50;2.33;;;4.50;99.90;;;;;;5020229;28;20497;-90
2023/01/27 09:14:25;;;;;;;3.53;1.95;;;4.50;99.90;;;;;;5037562;28;20025;-91
2023/01/27 09:16:51;;;;;;;3.45;2.28;;;4.50;99.90;;;;;;5020528;28;20034;-90
2023/01/27 09:19:16;;;;;;;3.22;1.92;;;4.50;99.90;;;;;;5021209;28;20430;-91
2023/01/27 09:21:42;;;;;;;4.07;2.00;;;4.50;99.90;;;;;;5020194;28;20022;-91
2023/01/27 09:24:07;;;;;;;3.78;1.92;;;4.50;99.90;;;;;;5037038;28;20057;-90
2023/01/27 09:26:33;;;;;;;4.15;1.98;;;4.50;99.90;;;;;;5037216;28;20045;-90
2023/01/27 09:28:58;;;;;;;5.80;2.15;;;4.50;99.90;;;;;;5036810;28;20029;-90
2023/01/27 09:31:24;;;;;;;4.47;1.80;;;4.50;99.90;;;;;;5019778;28;20036;-91
2023/01/27 09:33:49;;;;;;;5.32;1.77;;;4.50;99.90;;;;;;5019797;28;20030;-91
2023/01/27 09:36:20;;;;;;;3.53;2.10;;;4.50;99.90;;;;;;5019850;28;20057;-90
2023/01/27 09:39:01;;;;;;;5.47;2.33;;;4.50;99.90;;;;;;5020271;28;20032;-90
2023/01/27 09:41:45;;;;;;;3.35;2.22;;;4.50;99.90;;;;;;5020648;28;20021;-90
2023/01/27 09:44:37;;;;;;;3.95;2.20;;;4.50;99.90;;;;;;5019839;28;20052;-90
2023/01/27 09:47:38;;;;;;;4.90;2.63;;;4.40;99.90;;;;;;5032074;28;20030;-90
2023/01/27 09:50:14;;;;;;;3.38;2.25;;;4.40;99.90;;;;;;5020109;28;20272;-90
2023/01/27 09:52:49;;;;;;;5.00;2.30;;;4.40;99.90;;;;;;5024673;28;20032;-90
2023/01/27 09:55:41;;;;;;;3.45;2.53;;;4.40;99.90;;;;;;5018491;28;20041;-91
2023/01/27 09:58:12;;;;;;;5.70;2.30;;;4.40;99.90;;;;;;5020526;28;20033;-90
2023/01/27 10:00:52;;;;;;;3.78;2.03;;;4.40;99.90;;;;;;5020738;28;20473;-90
2023/01/27 10:03:47;;;;;;;3.75;2.60;;;4.50;99.90;;;;;;5019543;28;20076;-91
2023/01/27 10:06:31;;;;;;;4.82;2.45;;;4.40;99.90;;;;;;5020169;28;20044;-91
2023/01/27 10:09:09;;;;;;;3.13;2.00;;;4.40;99.90;;;;;;5019118;28;20026;-90
2023/01/27 10:11:47;;;;;;;5.05;2.40;;;4.50;99.90;;;;;;5019948;28;20047;-91
2023/01/27 10:14:17;;;;;;;3.00;2.28;;;4.50;99.90;;;;;;5010900;28;20388;-90
2023/01/27 10:17:05;;;;;;;4.10;2.40;;;4.50;99.90;;;;;;5021133;28;20064;-91
2023/01/27 10:19:52;;;;;;;6.18;3.10;;;4.50;99.90;;;;;;5020316;28;20030;-91
2023/01/27 10:22:37;;;;;;;3.55;2.35;;;4.50;99.90;;;;;;5012203;28;20546;-91
2023/01/27 10:25:24;;;;;;;4.53;2.53;;;4.60;99.90;;;;;;5015341;28;20025;-90
2023/01/27 10:27:58;;;;;;;6.50;2.40;;;4.60;99.90;;;;;;5019938;28;20382;-90
2023/01/27 10:30:34;;;;;;;3.75;2.70;;;4.60;99.90;;;;;;5019743;28;20032;-90
2023/01/27 10:33:12;;;;;;;5.70;2.65;;;4.60;99.90;;;;;;5019289;28;20025;-92
2023/01/27 10:35:56;;;;;;;4.70;2.65;;;4.70;99.90;;;;;;5018698;28;20482;-90
2023/01/27 10:38:46;;;;;;;3.90;2.75;;;4.60;99.90;;;;;;5017132;28;20025;-90
2023/01/27 10:41:25;;;;;;;3.85;2.25;;;4.70;99.90;;;;;;5019580;28;20029;-90
2023/01/27 10:44:33;;;;;;;4.88;2.50;;;4.70;99.90;;;;;;5014018;28;20072;-90
2023/01/27 10:47:26;;;;;;;5.13;2.70;;;4.70;99.90;;;;;;5017820;28;20515;-91
2023/01/27 10:50:31;;;;;;;4.78;3.28;;;4.70;99.90;;;;;;5023377;28;20041;-90
2023/01/27 10:53:06;;;;;;;4.15;2.70;;;4.80;99.90;;;;;;5015669;28;20068;-87
2023/01/27 10:55:53;;;;;;;4.72;2.60;;;4.80;99.90;;;;;;5015664;28;20041;-90
2023/01/27 10:58:32;;;;;;;5.28;2.78;;;4.80;99.90;;;;;;5011507;28;20179;-90
2023/01/27 11:00:59;;;;;;;6.60;3.45;;;4.90;99.90;;;;;;5025917;28;20017;-90
2023/01/27 11:03:27;;;;;;;4.70;3.00;;;4.90;99.90;;;;;;5019358;28;20028;-91
2023/01/27 11:05:58;;;;;;;5.18;3.03;;;4.90;99.90;;;;;;5016830;28;20032;-92
2023/01/27 11:08:34;;;;;;;4.50;2.60;;;4.90;99.90;;;;;;5016686;28;20033;-91
2023/01/27 11:14:01;;;;;;;4.95;2.67;;;5.00;99.90;;;;;;5045985;28;20067;-90
2023/01/27 11:16:31;;;;;;;3.78;2.72;;;5.00;99.90;;;;;;5005785;28;20068;-89
2023/01/27 11:19:04;;;;;;;3.83;2.50;;;5.00;99.90;;;;;;5020904;28;20049;-91
2023/01/27 11:21:31;;;;;;;4.45;2.85;;;5.20;99.90;;;;;;5013956;28;20127;-91
2023/01/27 11:24:04;;;;;;;6.03;2.90;;;5.20;99.90;;;;;;5016748;28;20156;-90
2023/01/27 11:26:43;;;;;;;4.38;2.65;;;5.30;99.90;;;;;;5028260;28;20176;-91
2023/01/27 11:29:32;;;;;;;4.55;2.60;;;5.20;99.90;;;;;;5015461;28;20021;-91
2023/01/27 11:32:28;;;;;;;6.93;2.65;;;5.30;99.90;;;;;;5035530;28;20025;-91
2023/01/27 11:35:12;;;;;;;5.70;2.88;;;5.30;99.90;;;;;;5019131;28;20089;-91
2023/01/27 11:37:41;;;;;;;6.18;3.10;;;5.20;99.90;;;;;;5012785;28;20492;-89
2023/01/27 11:40:20;;;;;;;7.20;4.32;;;5.20;99.90;;;;;;5015273;28;20042;-91
2023/01/27 11:42:46;;;;;;;3.97;2.75;;;5.20;99.90;;;;;;5015591;28;20029;-91
2023/01/27 11:45:17;;;;;;;5.78;3.33;;;5.20;99.90;;;;;;5012522;28;20022;-92
2023/01/27 11:47:44;;;;;;;5.05;3.08;;;5.20;99.90;;;;;;5017497;28;20029;-90
2023/01/27 11:50:19;;;;;;;5.85;2.72;;;5.20;99.90;;;;;;5016116;28;20044;-90
2023/01/27 11:52:50;;;;;;;4.28;2.92;;;5.30;99.90;;;;;;5025557;28;20025;-90
2023/01/27 11:55:24;;;;;;;4.47;2.88;;;5.30;99.90;;;;;;5032171;28;20029;-91
2023/01/27 11:58:29;;;;;;;4.55;2.92;;;5.30;99.90;;;;;;5020444;28;20056;-90
2023/01/27 12:01:10;;;;;;;6.35;3.03;;;5.40;99.90;;;;;;4994207;28;20033;-90
2023/01/27 12:04:00;;;;;;;4.00;2.65;;;5.50;99.90;;;;;;5009982;28;20037;-91
2023/01/27 12:06:43;;;;;;;6.30;2.83;;;5.60;99.90;;;;;;5015052;28;20037;-90
2023/01/27 12:09:34;;;;;;;3.95;2.35;;;5.60;99.90;;;;;;5031199;28;20021;-90
2023/01/27 12:12:22;;;;;;;4.60;2.22;;;5.70;99.90;;;;;;5008883;28;20022;-92
2023/01/27 12:14:56;;;;;;;6.07;3.72;;;5.70;99.90;;;;;;5030485;28;20034;-91
2023/01/27 12:17:28;;;;;;;5.70;3.50;;;5.60;99.90;;;;;;5019596;28;20030;-91
2023/01/27 12:19:57;;;;;;;5.15;3.10;;;5.60;99.90;;;;;;5017273;28;20437;-91
2023/01/27 12:22:38;;;;;;;4.78;2.60;;;5.60;99.90;;;;;;5008996;28;20355;-90
2023/01/27 12:25:18;;;;;;;4.00;2.90;;;5.50;99.90;;;;;;5017219;28;20498;-91
2023/01/27 12:28:15;;;;;;;3.67;2.65;;;5.60;99.90;;;;;;5019329;28;20048;-91
2023/01/27 12:30:45;;;;;;;5.43;2.30;;;5.50;99.90;;;;;;5017587;28;20381;-90
2023/01/27 12:33:19;;;;;;;3.17;2.00;;;5.60;99.90;;;;;;5015800;28;20496;-90
2023/01/27 12:35:48;;;;;;;3.85;2.30;;;5.70;99.90;;;;;;5018662;28;20145;-90
2023/01/27 12:38:23;;;;;;;5.55;2.67;;;5.70;99.90;;;;;;5016804;28;20065;-90
2023/01/27 12:41:04;;;;;;;4.32;2.38;;;5.70;99.90;;;;;;5016891;28;20105;-88
2023/01/27 12:43:30;;;;;;;5.00;3.20;;;5.70;99.90;;;;;;5010594;28;20030;-88
2023/01/27 12:46:09;;;;;;;4.68;2.20;;;5.70;99.90;;;;;;5011567;28;20026;-88
2023/01/27 12:48:47;;;;;;;4.50;2.58;;;5.70;99.90;;;;;;5013479;28;20033;-96
2023/01/27 12:51:20;;;;;;;4.20;2.65;;;5.70;99.90;;;;;;5016389;28;20048;-93
2023/01/27 12:53:47;;;;;;;3.13;2.08;;;5.70;99.90;;;;;;5027257;28;20025;-93
2023/01/27 12:56:22;;;;;;;3.97;2.40;;;5.70;99.90;;;;;;5021985;28;20469;-90
2023/01/27 12:58:56;;;;;;;4.28;2.35;;;5.70;99.90;;;;;;5014902;28;20490;-90
2023/01/27 13:01:36;;;;;;;5.57;3.90;;;5.70;99.90;;;;;;5009866;28;20535;-88
2023/01/27 13:04:21;;;;;;;4.70;2.25;;;5.70;99.90;;;;;;5024145;28;20033;-89
2023/01/27 13:06:56;;;;;;;3.03;2.25;;;5.80;99.90;;;;;;5020084;28;20030;-89
2023/01/27 13:09:37;;;;;;;3.20;1.80;;;5.80;99.90;;;;;;5033796;28;20136;-89
2023/01/27 13:12:44;;;;;;;3.35;2.05;;;5.80;99.90;;;;;;5033667;28;20033;-90
2023/01/27 13:15:29;;;;;;;4.50;1.67;;;5.90;99.90;;;;;;5017032;28;20029;-90
2023/01/27 13:17:57;;;;;;;5.35;2.30;;;5.90;99.90;;;;;;5017593;28;20049;-90
2023/01/27 13:20:38;;;;;;;5.63;2.08;;;5.90;99.90;;;;;;5033788;28;20076;-90
2023/01/27 13:23:12;;;;;;;4.65;2.92;;;6.00;99.90;;;;;;4998383;28;20034;-90
2023/01/27 13:25:46;;;;;;;6.32;2.60;;;6.00;99.90;;;;;;5017059;28;20026;-89
2023/01/27 13:28:19;;;;;;;6.38;3.85;;;6.00;99.90;;;;;;5016521;28;20030;-90
2023/01/27 13:30:50;;;;;;;4.97;3.03;;;6.00;99.90;;;;;;5015986;28;20033;-90
2023/01/27 13:33:42;;;;;;;3.17;2.08;;;6.00;99.90;;;;;;5026549;28;20049;-90
2023/01/27 13:36:28;;;;;;;3.90;2.63;;;6.00;99.90;;;;;;5015093;28;20126;-90
2023/01/27 13:39:03;;;;;;;3.92;2.15;;;6.00;99.90;;;;;;5004040;28;20026;-90
2023/01/27 13:41:41;;;;;;;4.35;2.35;;;5.90;99.90;;;;;;5017090;28;20044;-90
2023/01/27 13:44:19;;;;;;;5.43;2.75;;;5.90;99.90;;;;;;5016889;28;20090;-90
2023/01/27 13:46:47;;;;;;;4.78;2.70;;;5.90;99.90;;;;;;5016660;28;20026;-90